Time,TemperatureF,DewpointF,PressureIn,WindDirection,WindDirectionDegrees,WindSpeedMPH,WindSpeedGustMPH,Humidity,HourlyPrecipIn,Conditions,Clouds,dailyrainin,SoftwareType,DateUTC
2013-03-26 00:12:00,41.3,28.0,29.61,NW,316,6.0,8.0,60,0.00,,,0.00,weatherlink.com 1.10,2013-03-26 04:12:00,
2013-03-26 00:28:00,41.2,29.0,29.62,WNW,291,5.0,11.0,61,0.00,,,0.00,weatherlink.com 1.10,2013-03-26 04:28:00,
2013-03-26 00:43:00,40.9,28.0,29.62,WNW,285,4.0,10.0,60,0.00,,,0.00,weatherlink.com 1.10,2013-03-26 04:43:00,
2013-03-26 00:58:00,40.7,28.0,29.62,NNW,335,2.0,8.0,61,0.00,,,0.00,weatherlink.com 1.10,2013-03-26 04:58:00,
2013-03-26 01:13:00,40.5,28.0,29.62,WNW,303,3.0,8.0,61,0.00,,,0.00,weatherlink.com 1.10,2013-03-26 05:13:00,
2013-03-26 01:29:00,40.1,28.0,29.63,WNW,299,3.0,7.0,62,0.00,,,0.00,weatherlink.com 1.10,2013-03-26 05:29:00,
2013-03-26 01:44:00,39.6,28.0,29.63,WNW,287,3.0,9.0,64,0.00,,,0.00,weatherlink.com 1.10,2013-03-26 05:44:00,
2013-03-26 01:59:00,39.3,28.0,29.64,West,276,3.0,7.0,65,0.00,,,0.00,weatherlink.com 1.10,2013-03-26 05:59:00,
2013-03-26 02:29:00,39.3,28.0,29.65,WNW,290,5.0,10.0,64,0.00,,,0.00,weatherlink.com 1.10,2013-03-26 06:29:00,
2013-03-26 02:46:00,39.0,28.0,29.65,WNW,291,4.0,10.0,65,0.00,,,0.00,weatherlink.com 1.10,2013-03-26 06:46:00,
2013-03-26 03:02:00,38.9,28.0,29.65,WNW,287,5.0,11.0,65,0.00,,,0.00,weatherlink.com 1.10,2013-03-26 07:02:00,
2013-03-26 03:16:00,38.7,28.0,29.65,WNW,293,2.0,10.0,65,0.00,,,0.00,weatherlink.com 1.10,2013-03-26 07:16:00,
2013-03-26 03:31:00,38.3,28.0,29.66,WSW,257,4.0,9.0,66,0.00,,,0.00,weatherlink.com 1.10,2013-03-26 07:31:00,
2013-03-26 03:46:00,37.8,28.0,29.66,WNW,284,5.0,10.0,68,0.00,,,0.00,weatherlink.com 1.10,2013-03-26 07:46:00,
2013-03-26 04:02:00,37.5,28.0,29.66,WNW,289,4.0,10.0,69,0.00,,,0.00,weatherlink.com 1.10,2013-03-26 08:02:00,
2013-03-26 04:16:00,37.1,28.0,29.66,West,278,3.0,10.0,70,0.00,,,0.00,weatherlink.com 1.10,2013-03-26 08:16:00,
2013-03-26 04:31:00,36.9,28.0,29.66,NW,326,7.0,14.0,69,0.00,,,0.00,weatherlink.com 1.10,2013-03-26 08:31:00,
2013-03-26 04:47:00,36.7,28.0,29.67,West,277,4.0,9.0,70,0.00,,,0.00,weatherlink.com 1.10,2013-03-26 08:47:00,
2013-03-26 05:03:00,36.7,28.0,29.67,West,267,4.0,9.0,70,0.00,,,0.00,weatherlink.com 1.10,2013-03-26 09:03:00,
2013-03-26 05:17:00,36.3,28.0,29.67,WSW,242,3.0,7.0,71,0.00,,,0.00,weatherlink.com 1.10,2013-03-26 09:17:00,
2013-03-26 05:32:00,35.5,27.0,29.68,WNW,283,2.0,5.0,72,0.00,,,0.00,weatherlink.com 1.10,2013-03-26 09:32:00,
2013-03-26 05:48:00,35.2,27.0,29.68,WNW,293,3.0,8.0,73,0.00,,,0.00,weatherlink.com 1.10,2013-03-26 09:48:00,
2013-03-26 06:03:00,34.3,26.0,29.68,WNW,288,7.0,8.0,73,0.00,,,0.00,weatherlink.com 1.10,2013-03-26 10:03:00,
2013-03-26 06:18:00,-999.0,-99.9,29.69,North,-999,-999.0,-999.0,-999,0.00,,,0.00,weatherlink.com 1.10,2013-03-26 10:18:00,
2013-03-26 06:34:00,-999.0,-99.9,29.69,North,-999,-999.0,-999.0,-999,0.00,,,0.00,weatherlink.com 1.10,2013-03-26 10:34:00,
2013-03-26 06:49:00,-999.0,-99.9,29.69,North,-999,-999.0,-999.0,-999,0.00,,,0.00,weatherlink.com 1.10,2013-03-26 10:49:00,
2013-03-26 07:05:00,-999.0,-99.9,29.70,North,-999,-999.0,-999.0,-999,0.00,,,0.00,weatherlink.com 1.10,2013-03-26 11:05:00,
2013-03-26 07:21:00,-999.0,-99.9,29.70,North,-999,-999.0,-999.0,-999,0.00,,,0.00,weatherlink.com 1.10,2013-03-26 11:21:00,
2013-03-26 07:36:00,35.2,28.0,29.70,West,280,2.0,-999.0,75,0.00,,,0.00,weatherlink.com 1.10,2013-03-26 11:36:00,
2013-03-26 07:51:00,36.1,29.0,29.70,NW,309,6.0,11.0,74,0.00,,,0.00,weatherlink.com 1.10,2013-03-26 11:51:00,
2013-03-26 08:06:00,37.0,29.0,29.70,WNW,288,7.0,11.0,72,0.00,,,0.00,weatherlink.com 1.10,2013-03-26 12:06:00,
2013-03-26 08:21:00,37.9,29.0,29.71,NNW,331,3.0,12.0,70,0.00,,,0.00,weatherlink.com 1.10,2013-03-26 12:21:00,
2013-03-26 08:36:00,38.6,29.0,29.71,West,281,5.0,11.0,69,0.00,,,0.00,weatherlink.com 1.10,2013-03-26 12:36:00,
2013-03-26 08:51:00,39.1,29.0,29.72,NW,325,8.0,15.0,68,0.00,,,0.00,weatherlink.com 1.10,2013-03-26 12:51:00,
2013-03-26 09:07:00,40.1,29.0,29.72,NW,314,8.0,13.0,65,0.00,,,0.00,weatherlink.com 1.10,2013-03-26 13:07:00,
2013-03-26 09:21:00,41.0,29.0,29.72,NW,312,11.0,16.0,62,0.00,,,0.00,weatherlink.com 1.10,2013-03-26 13:21:00,
2013-03-26 09:37:00,42.3,30.0,29.72,NW,309,10.0,13.0,61,0.00,,,0.00,weatherlink.com 1.10,2013-03-26 13:37:00,
2013-03-26 09:52:00,43.2,30.0,29.72,NW,311,4.0,14.0,59,0.00,,,0.00,weatherlink.com 1.10,2013-03-26 13:52:00,
2013-03-26 10:07:00,44.1,30.0,29.73,NW,325,8.0,13.0,58,0.00,,,0.00,weatherlink.com 1.10,2013-03-26 14:07:00,
2013-03-26 10:22:00,44.7,30.0,29.73,NW,326,7.0,11.0,56,0.00,,,0.00,weatherlink.com 1.10,2013-03-26 14:22:00,
2013-03-26 10:37:00,45.7,30.0,29.73,NW,313,4.0,12.0,55,0.00,,,0.00,weatherlink.com 1.10,2013-03-26 14:37:00,
2013-03-26 10:53:00,46.7,30.0,29.72,NW,320,3.0,10.0,52,0.00,,,0.00,weatherlink.com 1.10,2013-03-26 14:53:00,
2013-03-26 11:08:00,47.7,30.0,29.73,WNW,295,4.0,9.0,51,0.00,,,0.00,weatherlink.com 1.10,2013-03-26 15:08:00,
2013-03-26 11:23:00,47.7,29.0,29.72,NNE,19,6.0,8.0,49,0.00,,,0.00,weatherlink.com 1.10,2013-03-26 15:23:00,
2013-03-26 11:39:00,48.0,30.0,29.72,North,354,2.0,10.0,50,0.00,,,0.00,weatherlink.com 1.10,2013-03-26 15:39:00,
2013-03-26 11:54:00,48.2,29.0,29.73,NW,316,9.0,12.0,47,0.00,,,0.00,weatherlink.com 1.10,2013-03-26 15:54:00,
2013-03-26 12:09:00,48.3,29.0,29.72,ENE,70,3.0,12.0,47,0.00,,,0.00,weatherlink.com 1.10,2013-03-26 16:09:00,
2013-03-26 12:24:00,48.5,29.0,29.72,NW,309,5.0,13.0,48,0.00,,,0.00,weatherlink.com 1.10,2013-03-26 16:24:00,
2013-03-26 12:41:00,48.8,30.0,29.72,West,276,5.0,11.0,49,0.00,,,0.00,weatherlink.com 1.10,2013-03-26 16:41:00,
2013-03-26 12:56:00,48.5,29.0,29.72,NE,56,6.0,11.0,47,0.00,,,0.00,weatherlink.com 1.10,2013-03-26 16:56:00,
2013-03-26 13:11:00,48.3,29.0,29.72,NW,326,1.0,13.0,47,0.00,,,0.00,weatherlink.com 1.10,2013-03-26 17:11:00,
2013-03-26 13:26:00,49.4,29.0,29.72,NNW,336,3.0,11.0,46,0.00,,,0.00,weatherlink.com 1.10,2013-03-26 17:26:00,
2013-03-26 13:41:00,49.1,30.0,29.71,WNW,301,7.0,11.0,48,0.00,,,0.00,weatherlink.com 1.10,2013-03-26 17:41:00,
2013-03-26 13:56:00,49.0,29.0,29.71,WNW,302,7.0,14.0,47,0.00,,,0.00,weatherlink.com 1.10,2013-03-26 17:56:00,
2013-03-26 14:11:00,49.1,29.0,29.71,NNE,27,4.0,10.0,47,0.00,,,0.00,weatherlink.com 1.10,2013-03-26 18:11:00,
2013-03-26 14:26:00,48.5,29.0,29.71,North,8,7.0,14.0,47,0.00,,,0.00,weatherlink.com 1.10,2013-03-26 18:26:00,
2013-03-26 14:42:00,48.7,30.0,29.71,NW,311,6.0,13.0,48,0.00,,,0.00,weatherlink.com 1.10,2013-03-26 18:42:00,
2013-03-26 14:57:00,48.7,30.0,29.71,NW,304,6.0,10.0,48,0.00,,,0.00,weatherlink.com 1.10,2013-03-26 18:57:00,
2013-03-26 15:12:00,48.7,30.0,29.71,NW,304,5.0,11.0,49,0.00,,,0.00,weatherlink.com 1.10,2013-03-26 19:12:00,
2013-03-26 15:27:00,48.9,30.0,29.71,NW,307,10.0,13.0,48,0.00,,,0.00,weatherlink.com 1.10,2013-03-26 19:27:00,
2013-03-26 15:42:00,49.1,30.0,29.71,WNW,283,7.0,13.0,49,0.00,,,0.00,weatherlink.com 1.10,2013-03-26 19:42:00,
2013-03-26 15:57:00,49.2,30.0,29.71,NNW,342,12.0,13.0,48,0.00,,,0.00,weatherlink.com 1.10,2013-03-26 19:57:00,
2013-03-26 16:13:00,49.1,30.0,29.72,NW,326,4.0,13.0,49,0.00,,,0.00,weatherlink.com 1.10,2013-03-26 20:13:00,
2013-03-26 16:28:00,48.9,31.0,29.72,NW,322,13.0,14.0,50,0.00,,,0.00,weatherlink.com 1.10,2013-03-26 20:28:00,
2013-03-26 16:43:00,48.9,31.0,29.73,NNW,332,8.0,15.0,50,0.00,,,0.00,weatherlink.com 1.10,2013-03-26 20:43:00,
2013-03-26 16:58:00,48.2,31.0,29.74,WNW,282,8.0,13.0,51,0.00,,,0.00,weatherlink.com 1.10,2013-03-26 20:58:00,
2013-03-26 17:14:00,47.9,31.0,29.75,WNW,300,5.0,14.0,52,0.00,,,0.00,weatherlink.com 1.10,2013-03-26 21:14:00,
2013-03-26 17:29:00,47.8,31.0,29.75,WNW,303,9.0,11.0,53,0.00,,,0.00,weatherlink.com 1.10,2013-03-26 21:29:00,
2013-03-26 17:44:00,47.9,32.0,29.75,NW,305,5.0,11.0,54,0.00,,,0.00,weatherlink.com 1.10,2013-03-26 21:44:00,
2013-03-26 17:59:00,47.8,32.0,29.76,NW,321,5.0,15.0,55,0.00,,,0.00,weatherlink.com 1.10,2013-03-26 21:59:00,
2013-03-26 18:16:00,47.6,32.0,29.76,WNW,283,5.0,15.0,55,0.00,,,0.00,weatherlink.com 1.10,2013-03-26 22:16:00,
2013-03-26 18:31:00,46.9,32.0,29.77,NW,309,3.0,9.0,57,0.00,,,0.00,weatherlink.com 1.10,2013-03-26 22:31:00,
2013-03-26 18:46:00,46.8,33.0,29.77,WNW,300,4.0,10.0,58,0.00,,,0.00,weatherlink.com 1.10,2013-03-26 22:46:00,
2013-03-26 19:02:00,46.6,32.0,29.78,WSW,240,5.0,8.0,58,0.00,,,0.00,weatherlink.com 1.10,2013-03-26 23:02:00,
2013-03-26 19:16:00,46.5,33.0,29.79,WSW,245,3.0,9.0,60,0.00,,,0.00,weatherlink.com 1.10,2013-03-26 23:16:00,
2013-03-26 19:31:00,46.2,33.0,29.79,NNW,328,2.0,8.0,61,0.00,,,0.00,weatherlink.com 1.10,2013-03-26 23:31:00,
2013-03-26 19:46:00,45.6,33.0,29.80,NW,322,3.0,8.0,62,0.00,,,0.00,weatherlink.com 1.10,2013-03-26 23:46:00,
2013-03-26 20:02:00,44.8,33.0,29.81,WNW,296,2.0,4.0,64,0.00,,,0.00,weatherlink.com 1.10,2013-03-27 00:02:00,
2013-03-26 20:17:00,44.1,34.0,29.82,WSW,255,1.0,3.0,67,0.00,,,0.00,weatherlink.com 1.10,2013-03-27 00:17:00,
2013-03-26 20:32:00,43.5,34.0,29.82,WNW,284,1.0,3.0,70,0.00,,,0.00,weatherlink.com 1.10,2013-03-27 00:32:00,
2013-03-26 20:47:00,43.3,34.0,29.83,West,273,1.0,2.0,70,0.00,,,0.00,weatherlink.com 1.10,2013-03-27 00:47:00,
2013-03-26 21:03:00,42.7,35.0,29.83,West,259,0.0,2.0,73,0.00,,,0.00,weatherlink.com 1.10,2013-03-27 01:03:00,
2013-03-26 21:18:00,42.2,34.0,29.84,WNW,290,0.0,2.0,74,0.00,,,0.00,weatherlink.com 1.10,2013-03-27 01:18:00,
2013-03-26 21:33:00,41.7,34.0,29.85,NW,323,2.0,2.0,75,0.00,,,0.00,weatherlink.com 1.10,2013-03-27 01:33:00,
2013-03-26 21:48:00,41.6,35.0,29.85,NW,319,0.0,2.0,76,0.00,,,0.00,weatherlink.com 1.10,2013-03-27 01:48:00,
2013-03-26 22:04:00,41.5,34.0,29.86,WNW,295,2.0,3.0,75,0.00,,,0.00,weatherlink.com 1.10,2013-03-27 02:04:00,
2013-03-26 22:19:00,41.9,35.0,29.86,NW,306,3.0,4.0,75,0.00,,,0.00,weatherlink.com 1.10,2013-03-27 02:19:00,
2013-03-26 22:34:00,42.3,34.0,29.87,NNE,25,2.0,3.0,73,0.00,,,0.00,weatherlink.com 1.10,2013-03-27 02:34:00,
2013-03-26 22:49:00,42.1,34.0,29.87,WNW,295,1.0,2.0,72,0.00,,,0.00,weatherlink.com 1.10,2013-03-27 02:49:00,
2013-03-26 23:05:00,41.3,34.0,29.87,WNW,289,1.0,3.0,74,0.00,,,0.00,weatherlink.com 1.10,2013-03-27 03:05:00,
2013-03-26 23:19:00,40.8,33.0,29.87,WNW,285,1.0,2.0,75,0.00,,,0.00,weatherlink.com 1.10,2013-03-27 03:19:00,
2013-03-26 23:51:00,40.6,34.0,29.87,WNW,290,1.0,3.0,77,0.00,,,0.00,weatherlink.com 1.10,2013-03-27 03:51:00,